createdAt,value
2022-10-30T00:02:09.242Z,100740.88
2022-10-30T00:07:10.950Z,100741.78
2022-10-30T00:12:12.523Z,100749.91
2022-10-30T00:17:14.108Z,100739.75
2022-10-30T00:22:15.673Z,100732.19
2022-10-30T00:27:17.283Z,100736.44
2022-10-30T00:32:18.868Z,100736.28
2022-10-30T00:37:20.484Z,100737.59
2022-10-30T00:42:22.077Z,100738.22
2022-10-30T00:47:28.082Z,100734.44
2022-10-30T00:52:34.050Z,100733.22
2022-10-30T00:57:37.081Z,100735.78
2022-10-30T01:02:41.549Z,100735.78
2022-10-30T01:07:43.166Z,100730.09
2022-10-30T01:12:47.125Z,100723.78
2022-10-30T01:18:14.914Z,100718.94
2022-10-30T01:23:35.239Z,100717.03
2022-10-30T01:28:55.716Z,100703.78
2022-10-30T01:34:18.900Z,100705.44
2022-10-30T01:39:25.404Z,100720.03
2022-10-30T01:44:31.645Z,100713.03
2022-10-30T01:50:01.364Z,100724.03
2022-10-30T01:55:13.548Z,100720.75
2022-10-30T02:00:17.369Z,100722.94
2022-10-30T02:05:41.496Z,100722.13
2022-10-30T02:10:45.744Z,100717.41
2022-10-30T02:15:48.823Z,100707.16
2022-10-30T02:20:50.562Z,100701.50
2022-10-30T02:25:52.122Z,100703.06
2022-10-30T02:30:53.695Z,100700.97
2022-10-30T02:35:55.252Z,100717.03
2022-10-30T02:40:58.478Z,100712.47
2022-10-30T02:46:00.245Z,100703.66
2022-10-30T02:51:03.465Z,100701.78
2022-10-30T02:56:07.632Z,100690.44
2022-10-30T03:01:17.931Z,100701.25
2022-10-30T03:06:19.659Z,100703.34
2022-10-30T03:11:21.225Z,100717.56
2022-10-30T03:16:25.128Z,100721.63
2022-10-30T03:21:27.950Z,100710.50
2022-10-30T03:26:29.753Z,100715.38
2022-10-30T03:31:38.343Z,100709.50
2022-10-30T03:36:47.855Z,100703.38
2022-10-30T03:41:49.515Z,100703.63
2022-10-30T03:46:52.354Z,100711.00
2022-10-30T03:52:07.399Z,100704.28
2022-10-30T03:57:08.932Z,100718.78
2022-10-30T04:02:23.088Z,100715.44
2022-10-30T04:07:24.772Z,100711.44
2022-10-30T04:12:26.417Z,100707.44
2022-10-30T04:17:28.257Z,100711.22
2022-10-30T04:22:31.883Z,100707.00
2022-10-30T04:27:42.426Z,100701.31
2022-10-30T04:32:52.375Z,100700.66
2022-10-30T04:37:59.722Z,100697.72
2022-10-30T04:43:03.045Z,100698.97
2022-10-30T04:48:17.217Z,100687.63
2022-10-30T04:53:19.385Z,100698.34
2022-10-30T04:58:23.306Z,100699.56
2022-10-30T05:03:35.837Z,100698.31
2022-10-30T05:08:42.481Z,100697.03
2022-10-30T05:13:54.274Z,100685.69
2022-10-30T05:18:55.836Z,100679.78
2022-10-30T05:23:57.358Z,100686.47
2022-10-30T05:28:59.958Z,100682.28
2022-10-30T05:34:04.592Z,100686.50
2022-10-30T05:39:09.331Z,100703.66
2022-10-30T05:44:13.782Z,100704.69
2022-10-30T05:49:18.113Z,100706.13
2022-10-30T05:54:20.004Z,100706.09
2022-10-30T05:59:44.144Z,100714.88
2022-10-30T06:04:45.685Z,100711.28
2022-10-30T06:09:48.624Z,100718.59
2022-10-30T06:15:22.869Z,100731.22
2022-10-30T06:20:27.347Z,100737.94
2022-10-30T06:25:55.210Z,100738.34
2022-10-30T06:31:01.336Z,100737.50
2022-10-30T06:36:05.397Z,100746.78
2022-10-30T06:41:07.734Z,100743.84
2022-10-30T06:46:41.377Z,100745.34
2022-10-30T06:51:43.900Z,100745.97
2022-10-30T06:56:50.052Z,100741.59
2022-10-30T07:02:19.776Z,100747.81
2022-10-30T07:07:31.474Z,100760.91
2022-10-30T07:12:33.627Z,100773.97
2022-10-30T07:17:52.178Z,100768.22
2022-10-30T07:22:57.010Z,100794.72
2022-10-30T07:27:59.427Z,100800.19
2022-10-30T07:33:10.883Z,100788.38
2022-10-30T07:38:30.664Z,100778.88
2022-10-30T07:43:41.889Z,100781.19
2022-10-30T07:49:05.298Z,100787.88
2022-10-30T07:54:16.486Z,100798.72
2022-10-30T07:59:18.168Z,100809.13
2022-10-30T08:04:35.431Z,100820.75
2022-10-30T08:09:51.999Z,100827.72
2022-10-30T08:14:54.390Z,100838.69
2022-10-30T08:19:57.182Z,100840.59
2022-10-30T08:24:58.919Z,100839.69
2022-10-30T08:30:04.540Z,100851.13
2022-10-30T08:35:07.323Z,100843.72
2022-10-30T08:40:10.800Z,100847.06
2022-10-30T08:45:18.760Z,100848.84
2022-10-30T08:50:41.317Z,100853.34
2022-10-30T08:55:43.349Z,100854.03
2022-10-30T09:00:57.206Z,100850.41
2022-10-30T09:06:20.252Z,100851.34
2022-10-30T09:11:44.443Z,100850.63
2022-10-30T09:16:46.145Z,100853.69
2022-10-30T09:21:50.253Z,100849.66
2022-10-30T09:26:51.975Z,100846.06
2022-10-30T09:32:01.815Z,100839.56
2022-10-30T09:37:05.786Z,100832.81
2022-10-30T09:42:37.667Z,100810.53
2022-10-30T09:48:03.526Z,100785.78
2022-10-30T09:53:26.012Z,100756.53
2022-10-30T09:59:00.878Z,100742.13
2022-10-30T10:04:26.473Z,100740.78
2022-10-30T10:10:00.817Z,100742.16
2022-10-30T10:15:34.812Z,100746.44
2022-10-30T10:20:43.664Z,100748.78
2022-10-30T10:25:53.450Z,100756.88
2022-10-30T10:31:11.193Z,100764.22
2022-10-30T10:36:24.969Z,100761.56
2022-10-30T10:41:26.508Z,100775.84
2022-10-30T10:46:46.756Z,100779.84
2022-10-30T10:52:07.172Z,100775.16
2022-10-30T10:57:17.104Z,100786.88
2022-10-30T11:02:38.175Z,100793.56
2022-10-30T11:07:47.438Z,100789.16
2022-10-30T11:12:49.441Z,100797.22
2022-10-30T11:17:59.946Z,100796.66
2022-10-30T11:23:01.845Z,100804.72
2022-10-30T11:28:05.683Z,100808.66
2022-10-30T11:33:23.117Z,100825.59
2022-10-30T11:38:26.967Z,100837.25
2022-10-30T11:43:28.880Z,100846.69
2022-10-30T11:48:33.233Z,100843.09
2022-10-30T11:53:40.136Z,100852.00
2022-10-30T11:58:46.007Z,100845.03
2022-10-30T12:03:48.064Z,100848.41
2022-10-30T12:09:12.684Z,100848.38
2022-10-30T12:14:20.516Z,100833.09
2022-10-30T12:19:24.791Z,100841.66
2022-10-30T12:24:43.523Z,100842.22
2022-10-30T12:30:20.027Z,100843.38
2022-10-30T12:35:40.943Z,100819.16
2022-10-30T12:40:52.401Z,100810.28
2022-10-30T12:46:35.983Z,100809.16
2022-10-30T12:51:49.701Z,100801.31
2022-10-30T12:57:09.366Z,100799.63
2022-10-30T13:02:20.085Z,100803.22
2022-10-30T13:07:41.848Z,100778.94
2022-10-30T13:12:48.453Z,100785.59
2022-10-30T13:17:50.898Z,100782.22
2022-10-30T13:23:05.967Z,100782.78
2022-10-30T13:28:39.804Z,100779.72
2022-10-30T13:33:53.420Z,100776.38
2022-10-30T13:39:28.700Z,100789.75
2022-10-30T13:45:01.774Z,100771.41
2022-10-30T13:50:17.697Z,100764.75
2022-10-30T13:55:22.727Z,100773.38
2022-10-30T14:00:30.008Z,100773.13
2022-10-30T14:05:50.702Z,100759.25
2022-10-30T14:11:00.324Z,100735.03
2022-10-30T14:16:06.560Z,100731.16
2022-10-30T14:21:30.007Z,100739.28
2022-10-30T14:26:31.752Z,100735.97
2022-10-30T14:31:36.034Z,100695.09
2022-10-30T14:36:43.728Z,100665.34
2022-10-30T14:42:06.038Z,100648.69
2022-10-30T14:47:39.427Z,100641.78
2022-10-30T14:52:52.983Z,100628.47
2022-10-30T14:58:03.523Z,100619.66
2022-10-30T15:03:26.520Z,100579.09
2022-10-30T15:08:43.263Z,100554.97
2022-10-30T15:13:52.959Z,100532.53
2022-10-30T15:19:02.769Z,100512.03
2022-10-30T15:24:04.730Z,100511.78
2022-10-30T15:29:07.583Z,100514.03
2022-10-30T15:34:22.764Z,100509.31
2022-10-30T15:39:24.973Z,100499.25
2022-10-30T15:44:40.055Z,100485.63
2022-10-30T15:49:57.951Z,100493.81
2022-10-30T15:55:08.708Z,100484.25
2022-10-30T16:00:30.459Z,100491.78
2022-10-30T16:05:32.657Z,100506.41
2022-10-30T16:10:35.647Z,100517.19
2022-10-30T16:15:39.926Z,100507.53
2022-10-30T16:20:44.798Z,100515.78
2022-10-30T16:25:47.678Z,100514.03
2022-10-30T16:30:49.949Z,100521.47
2022-10-30T16:35:55.555Z,100523.81
2022-10-30T16:40:58.063Z,100525.94
2022-10-30T16:46:14.899Z,100527.50
2022-10-30T16:51:18.158Z,100519.72
2022-10-30T16:56:23.853Z,100523.59
2022-10-30T17:01:29.118Z,100526.41
2022-10-30T17:06:43.172Z,100528.97
2022-10-30T17:12:00.119Z,100531.69
2022-10-30T17:17:01.699Z,100546.75
2022-10-30T17:22:09.932Z,100552.28
2022-10-30T17:27:29.821Z,100556.88
2022-10-30T17:32:45.043Z,100563.19
2022-10-30T17:37:46.617Z,100573.44
2022-10-30T17:42:49.360Z,100592.56
2022-10-30T17:47:50.886Z,100621.56
2022-10-30T17:52:52.498Z,100649.16
2022-10-30T17:57:54.066Z,100666.28
2022-10-30T18:02:55.687Z,100675.97
2022-10-30T18:07:57.305Z,100671.66
2022-10-30T18:12:59.427Z,100670.88
2022-10-30T18:18:02.765Z,100671.78
2022-10-30T18:23:12.785Z,100671.06
2022-10-30T18:28:22.030Z,100675.47
2022-10-30T18:33:23.800Z,100683.72
2022-10-30T18:38:25.500Z,100687.63
2022-10-30T18:43:27.047Z,100691.66
2022-10-30T18:48:28.594Z,100699.03
2022-10-30T18:53:34.985Z,100697.09
2022-10-30T18:58:36.879Z,100694.63
2022-10-30T19:03:38.450Z,100700.28
2022-10-30T19:08:40.085Z,100703.25
2022-10-30T19:13:41.745Z,100700.41
2022-10-30T19:18:45.057Z,100712.13
2022-10-30T19:23:46.700Z,100711.41
2022-10-30T19:28:48.309Z,100708.97
2022-10-30T19:33:54.626Z,100717.88
2022-10-30T19:39:02.891Z,100721.72
2022-10-30T19:44:09.086Z,100729.34
2022-10-30T19:49:18.788Z,100728.09
2022-10-30T19:54:20.313Z,100728.59
2022-10-30T19:59:21.814Z,100730.66
2022-10-30T20:04:23.330Z,100730.09
2022-10-30T20:09:24.862Z,100732.84
2022-10-30T20:14:27.973Z,100728.84
2022-10-30T20:19:31.047Z,100735.78
2022-10-30T20:24:33.971Z,100740.84
2022-10-30T20:29:36.826Z,100745.25
2022-10-30T20:34:38.359Z,100755.63
2022-10-30T20:39:41.993Z,100767.09
2022-10-30T20:44:43.495Z,100758.09
2022-10-30T20:49:45.105Z,100769.09
2022-10-30T20:54:46.709Z,100776.06
2022-10-30T20:59:51.984Z,100775.66
2022-10-30T21:04:53.547Z,100785.34
2022-10-30T21:09:55.118Z,100784.50
2022-10-30T21:14:56.639Z,100788.53
2022-10-30T21:19:58.240Z,100784.34
2022-10-30T21:24:59.756Z,100794.06
2022-10-30T21:30:01.364Z,100793.41
2022-10-30T21:35:02.965Z,100790.69
2022-10-30T21:40:05.021Z,100791.97
2022-10-30T21:45:07.277Z,100796.41
2022-10-30T21:50:12.154Z,100784.81
2022-10-30T21:55:14.363Z,100800.38
2022-10-30T22:00:16.259Z,100790.50
2022-10-30T22:05:18.893Z,100800.19
2022-10-30T22:10:20.532Z,100799.97
2022-10-30T22:15:22.059Z,100801.88
2022-10-30T22:20:23.576Z,100802.69
2022-10-30T22:25:25.099Z,100802.28
2022-10-30T22:30:26.646Z,100800.38
2022-10-30T22:35:37.747Z,100792.16
2022-10-30T22:40:40.344Z,100793.41
2022-10-30T22:45:41.854Z,100788.34
2022-10-30T22:50:46.070Z,100788.97
2022-10-30T22:55:47.567Z,100789.81
2022-10-30T23:00:52.071Z,100790.00
2022-10-30T23:05:59.541Z,100795.06
2022-10-30T23:11:01.843Z,100777.59
2022-10-30T23:16:06.596Z,100786.19
2022-10-30T23:21:11.961Z,100781.34
2022-10-30T23:26:18.715Z,100788.72
2022-10-30T23:31:36.106Z,100790.59
2022-10-30T23:36:37.908Z,100792.53
2022-10-30T23:41:39.535Z,100788.72
2022-10-30T23:46:41.546Z,100788.06
2022-10-30T23:51:43.078Z,100793.94
2022-10-30T23:56:44.596Z,100780.91
